createdAt,value
2018-05-17T00:04:04.441Z,14.00
2018-05-17T00:09:11.623Z,14.00
2018-05-17T00:14:18.735Z,14.00
2018-05-17T00:19:25.934Z,14.00
2018-05-17T00:24:33.184Z,14.00
2018-05-17T00:29:40.224Z,14.00
2018-05-17T00:34:47.429Z,13.90
2018-05-17T00:39:54.538Z,13.90
2018-05-17T00:45:01.726Z,13.90
2018-05-17T00:50:08.843Z,13.90
2018-05-17T00:55:16.763Z,13.80
2018-05-17T01:00:23.905Z,13.80
2018-05-17T01:05:31.098Z,13.90
2018-05-17T01:10:38.325Z,13.80
2018-05-17T01:15:45.491Z,13.80
2018-05-17T01:20:52.673Z,13.70
2018-05-17T01:26:00.582Z,13.50
2018-05-17T01:31:07.710Z,13.50
2018-05-17T01:36:15.603Z,13.60
2018-05-17T01:41:22.842Z,13.50
2018-05-17T01:46:29.917Z,13.50
2018-05-17T01:51:37.127Z,13.60
2018-05-17T01:56:45.031Z,13.60
2018-05-17T02:01:52.181Z,13.60
2018-05-17T02:06:59.238Z,13.60
2018-05-17T02:12:06.442Z,13.60
2018-05-17T02:17:13.534Z,13.50
2018-05-17T02:22:20.685Z,13.50
2018-05-17T02:27:27.790Z,13.50
2018-05-17T02:32:35.666Z,13.60
2018-05-17T02:37:43.589Z,13.60
2018-05-17T02:42:50.802Z,13.60
2018-05-17T02:47:58.008Z,13.70
2018-05-17T02:53:05.225Z,13.70
2018-05-17T02:58:12.335Z,13.70
2018-05-17T03:03:19.447Z,13.70
2018-05-17T03:08:26.681Z,13.70
2018-05-17T03:13:34.510Z,13.70
2018-05-17T03:18:41.654Z,13.60
2018-05-17T03:23:48.880Z,13.70
2018-05-17T03:28:56.067Z,13.70
2018-05-17T03:34:03.858Z,13.70
2018-05-17T03:39:10.912Z,13.70
2018-05-17T03:44:18.862Z,13.60
2018-05-17T03:49:26.797Z,13.60
2018-05-17T03:54:34.586Z,13.70
2018-05-17T03:59:41.714Z,13.50
2018-05-17T04:05:01.363Z,13.60
2018-05-17T04:10:08.382Z,13.50
2018-05-17T04:15:16.311Z,13.40
2018-05-17T04:20:24.315Z,13.40
2018-05-17T04:25:31.438Z,13.30
2018-05-17T04:30:39.340Z,13.20
2018-05-17T04:35:47.385Z,13.20
2018-05-17T04:40:54.422Z,13.10
2018-05-17T04:46:01.574Z,13.20
2018-05-17T04:51:08.674Z,13.20
2018-05-17T04:56:15.913Z,13.10
2018-05-17T05:01:22.983Z,13.00
2018-05-17T05:06:30.134Z,12.90
2018-05-17T05:11:37.267Z,12.90
2018-05-17T05:16:45.202Z,12.80
2018-05-17T05:21:52.450Z,12.80
2018-05-17T05:27:00.322Z,12.90
2018-05-17T05:32:08.251Z,12.90
2018-05-17T05:37:15.425Z,12.90
2018-05-17T05:42:22.639Z,12.90
2018-05-17T05:47:29.798Z,12.80
2018-05-17T05:52:36.968Z,12.90
2018-05-17T05:57:44.170Z,13.00
2018-05-17T06:02:51.341Z,12.90
2018-05-17T06:07:58.411Z,12.80
2018-05-17T06:13:05.491Z,12.80
2018-05-17T06:18:12.598Z,12.70
2018-05-17T06:23:20.482Z,12.60
2018-05-17T06:28:27.574Z,12.50
2018-05-17T06:33:34.781Z,12.50
2018-05-17T06:38:41.870Z,12.50
2018-05-17T06:43:49.188Z,12.60
2018-05-17T06:48:56.190Z,12.60
2018-05-17T06:54:04.102Z,13.20
2018-05-17T06:59:11.217Z,13.20
2018-05-17T07:04:19.124Z,13.80
2018-05-17T07:09:26.321Z,13.70
2018-05-17T07:14:34.246Z,14.20
2018-05-17T07:19:41.462Z,14.10
2018-05-17T07:24:48.595Z,14.00
2018-05-17T07:29:55.910Z,14.00
2018-05-17T07:35:03.797Z,13.30
2018-05-17T07:40:11.686Z,13.60
2018-05-17T07:45:18.882Z,13.40
2018-05-17T07:50:25.909Z,13.50
2018-05-17T07:55:33.119Z,13.30
2018-05-17T08:00:41.016Z,13.30
2018-05-17T08:05:48.221Z,13.20
2018-05-17T08:10:55.370Z,13.40
2018-05-17T08:16:02.493Z,13.50
2018-05-17T08:21:10.350Z,13.60
2018-05-17T08:26:17.450Z,13.50
2018-05-17T08:31:25.362Z,14.30
2018-05-17T08:36:32.636Z,14.30
2018-05-17T08:41:39.721Z,14.50
2018-05-17T08:46:47.036Z,14.80
2018-05-17T08:51:54.070Z,15.00
2018-05-17T08:57:01.174Z,15.00
2018-05-17T09:02:08.989Z,15.00
2018-05-17T09:07:16.037Z,14.90
2018-05-17T09:12:23.202Z,14.80
2018-05-17T09:17:30.327Z,15.00
2018-05-17T09:22:37.442Z,14.90
2018-05-17T09:27:44.609Z,15.00
2018-05-17T09:32:52.537Z,15.40
2018-05-17T09:37:59.710Z,15.30
2018-05-17T09:43:06.925Z,15.50
2018-05-17T09:48:14.138Z,16.00
2018-05-17T09:53:21.365Z,16.10
2018-05-17T09:58:29.245Z,16.40
2018-05-17T10:03:36.447Z,16.30
2018-05-17T10:08:43.511Z,17.20
2018-05-17T10:13:50.606Z,17.30
2018-05-17T10:18:57.661Z,17.00
2018-05-17T10:24:05.580Z,17.30
2018-05-17T10:29:13.487Z,17.50
2018-05-17T10:34:21.418Z,17.50
2018-05-17T10:39:29.230Z,17.50
2018-05-17T10:44:36.422Z,17.50
2018-05-17T10:49:43.642Z,17.40
2018-05-17T10:54:50.793Z,17.30
2018-05-17T10:59:58.637Z,17.80
2018-05-17T11:05:05.852Z,17.70
2018-05-17T11:10:13.766Z,18.10
2018-05-17T11:15:20.978Z,18.00
2018-05-17T11:20:28.098Z,17.90
2018-05-17T11:25:35.223Z,18.00
2018-05-17T11:30:42.330Z,18.00
2018-05-17T11:35:50.206Z,17.80
2018-05-17T11:40:57.363Z,17.80
2018-05-17T11:46:04.505Z,17.70
2018-05-17T11:51:11.754Z,17.80
2018-05-17T11:56:19.734Z,17.60
2018-05-17T12:01:26.928Z,17.50
2018-05-17T12:06:33.992Z,17.70
2018-05-17T12:11:41.233Z,17.60
2018-05-17T12:16:48.333Z,17.80
2018-05-17T12:21:56.281Z,17.60
2018-05-17T12:27:03.474Z,17.60
2018-05-17T12:32:11.482Z,17.70
2018-05-17T12:37:19.293Z,17.80
2018-05-17T12:42:26.386Z,17.70
2018-05-17T12:47:33.635Z,17.70
2018-05-17T12:52:40.794Z,17.80
2018-05-17T12:57:47.957Z,17.80
2018-05-17T13:02:55.106Z,17.90
2018-05-17T13:08:02.254Z,18.00
2018-05-17T13:13:09.422Z,17.80
2018-05-17T13:18:16.539Z,18.10
2018-05-17T13:23:23.769Z,18.20
2018-05-17T13:28:34.942Z,18.30
2018-05-17T13:33:42.060Z,18.30
2018-05-17T13:38:49.330Z,18.20
2018-05-17T13:43:57.342Z,18.50
2018-05-17T13:49:04.492Z,18.50
2018-05-17T13:54:11.546Z,18.60
2018-05-17T13:59:19.589Z,18.70
2018-05-17T14:04:27.489Z,18.80
2018-05-17T14:09:34.645Z,18.70
2018-05-17T14:14:41.743Z,18.80
2018-05-17T14:19:48.850Z,18.90
2018-05-17T14:24:56.109Z,18.90
2018-05-17T14:30:04.027Z,18.70
2018-05-17T14:35:11.844Z,18.60
2018-05-17T14:40:19.042Z,18.60
2018-05-17T14:45:26.171Z,18.70
2018-05-17T14:50:33.430Z,18.60
2018-05-17T14:55:40.657Z,18.50
2018-05-17T15:00:47.800Z,18.50
2018-05-17T15:05:55.050Z,18.50
2018-05-17T15:11:02.981Z,18.60
2018-05-17T15:16:10.105Z,18.50
2018-05-17T15:21:17.226Z,18.70
2018-05-17T15:26:25.206Z,19.20
2018-05-17T15:31:32.370Z,19.20
2018-05-17T15:36:40.340Z,19.10
2018-05-17T15:41:47.564Z,19.10
2018-05-17T15:46:55.545Z,19.30
2018-05-17T15:52:02.666Z,19.30
2018-05-17T15:57:10.572Z,19.20
2018-05-17T16:02:17.733Z,19.20
2018-05-17T16:07:25.589Z,19.20
2018-05-17T16:12:32.755Z,19.10
2018-05-17T16:17:39.951Z,19.30
2018-05-17T16:22:47.054Z,19.30
2018-05-17T16:27:54.138Z,19.10
2018-05-17T16:33:01.344Z,19.40
2018-05-17T16:38:08.498Z,19.30
2018-05-17T16:43:16.441Z,19.30
2018-05-17T16:48:23.576Z,19.30
2018-05-17T16:53:30.845Z,19.30
2018-05-17T16:58:38.784Z,19.20
2018-05-17T17:03:45.745Z,19.20
2018-05-17T17:08:53.666Z,19.10
2018-05-17T17:14:01.573Z,19.10
2018-05-17T17:19:08.754Z,19.10
2018-05-17T17:24:16.033Z,19.10
2018-05-17T17:29:23.913Z,19.00
2018-05-17T17:34:31.081Z,19.00
2018-05-17T17:39:38.218Z,19.00
2018-05-17T17:44:45.330Z,19.00
2018-05-17T17:49:53.425Z,18.70
2018-05-17T17:55:00.467Z,18.70
2018-05-17T18:00:07.691Z,18.40
2018-05-17T18:05:14.906Z,18.20
2018-05-17T18:10:21.797Z,18.00
2018-05-17T18:15:29.687Z,17.80
2018-05-17T18:20:36.894Z,17.80
2018-05-17T18:25:44.092Z,17.70
2018-05-17T18:30:51.246Z,17.60
2018-05-17T18:35:59.073Z,17.30
2018-05-17T18:41:06.283Z,17.20
2018-05-17T18:46:13.382Z,17.20
2018-05-17T18:51:21.311Z,17.10
2018-05-17T18:56:28.409Z,16.90
2018-05-17T19:01:35.549Z,16.80
2018-05-17T19:06:42.729Z,16.70
2018-05-17T19:11:50.646Z,16.70
2018-05-17T19:16:58.552Z,16.60
2018-05-17T19:22:05.745Z,16.50
2018-05-17T19:27:12.997Z,16.50
2018-05-17T19:32:20.326Z,16.30
2018-05-17T19:37:28.258Z,16.20
2018-05-17T19:42:35.434Z,16.20
2018-05-17T19:47:42.637Z,16.20
2018-05-17T19:52:49.807Z,16.10
2018-05-17T19:57:56.877Z,15.90
2018-05-17T20:03:04.098Z,15.80
2018-05-17T20:08:11.341Z,15.80
2018-05-17T20:13:18.457Z,15.50
2018-05-17T20:18:25.493Z,15.50
2018-05-17T20:23:32.631Z,15.30
2018-05-17T20:28:40.526Z,14.90
2018-05-17T20:33:47.722Z,14.90
2018-05-17T20:38:54.833Z,14.90
2018-05-17T20:44:01.955Z,14.80
2018-05-17T20:49:09.065Z,14.60
2018-05-17T20:54:16.222Z,14.60
2018-05-17T20:59:24.071Z,14.20
2018-05-17T21:04:31.198Z,14.20
2018-05-17T21:09:39.082Z,14.00
2018-05-17T21:14:46.163Z,13.90
2018-05-17T21:19:53.360Z,14.00
2018-05-17T21:25:00.586Z,13.90
2018-05-17T21:30:08.495Z,13.60
2018-05-17T21:35:15.618Z,13.50
2018-05-17T21:40:22.810Z,13.40
2018-05-17T21:45:30.008Z,13.30
2018-05-17T21:50:37.826Z,13.20
2018-05-17T21:55:45.634Z,13.00
2018-05-17T22:00:52.765Z,13.00
2018-05-17T22:06:00.670Z,12.80
2018-05-17T22:11:07.881Z,12.70
2018-05-17T22:16:15.010Z,12.70
2018-05-17T22:21:22.183Z,12.60
2018-05-17T22:26:29.366Z,12.60
2018-05-17T22:31:36.554Z,12.40
2018-05-17T22:36:43.790Z,12.40
2018-05-17T22:41:51.634Z,12.20
2018-05-17T22:46:58.710Z,12.20
2018-05-17T22:52:06.634Z,12.00
2018-05-17T22:57:13.841Z,11.90
2018-05-17T23:02:20.975Z,11.90
2018-05-17T23:07:28.237Z,11.90
2018-05-17T23:12:35.390Z,11.70
2018-05-17T23:17:42.635Z,11.70
2018-05-17T23:22:49.762Z,11.70
2018-05-17T23:27:57.666Z,11.60
2018-05-17T23:33:04.775Z,11.50
2018-05-17T23:38:11.971Z,11.40
2018-05-17T23:43:19.887Z,11.20
2018-05-17T23:48:27.209Z,11.20
2018-05-17T23:53:34.377Z,11.20
2018-05-17T23:58:42.321Z,11.00
